createdAt,value
2022-11-02T00:00:22.042Z,6.11
2022-11-02T00:02:49.330Z,5.92
2022-11-02T00:05:15.901Z,5.92
2022-11-02T00:07:42.394Z,6.06
2022-11-02T00:10:10.878Z,6.11
2022-11-02T00:12:37.216Z,6.16
2022-11-02T00:15:04.578Z,6.26
2022-11-02T00:17:31.422Z,6.26
2022-11-02T00:19:59.137Z,6.31
2022-11-02T00:22:26.446Z,6.24
2022-11-02T00:24:53.341Z,5.98
2022-11-02T00:27:20.452Z,5.81
2022-11-02T00:29:46.833Z,5.66
2022-11-02T00:32:13.171Z,5.55
2022-11-02T00:34:40.065Z,5.46
2022-11-02T00:37:06.437Z,5.45
2022-11-02T00:39:32.749Z,5.33
2022-11-02T00:41:59.453Z,5.29
2022-11-02T00:44:26.134Z,5.20
2022-11-02T00:46:52.455Z,5.16
2022-11-02T00:49:18.799Z,5.00
2022-11-02T00:51:46.621Z,4.96
2022-11-02T00:54:12.953Z,4.84
2022-11-02T00:56:39.314Z,4.77
2022-11-02T00:59:06.080Z,4.70
2022-11-02T01:01:32.655Z,4.68
2022-11-02T01:03:59.685Z,4.70
2022-11-02T01:06:26.121Z,4.66
2022-11-02T01:08:53.173Z,4.59
2022-11-02T01:11:23.544Z,4.54
2022-11-02T01:13:51.513Z,4.48
2022-11-02T01:16:18.374Z,4.46
2022-11-02T01:18:44.721Z,4.28
2022-11-02T01:21:12.019Z,4.33
2022-11-02T01:23:38.615Z,4.32
2022-11-02T01:26:06.641Z,4.33
2022-11-02T01:28:33.636Z,4.27
2022-11-02T01:31:00.189Z,4.27
2022-11-02T01:33:27.395Z,4.21
2022-11-02T01:35:55.062Z,4.20
2022-11-02T01:38:21.686Z,4.16
2022-11-02T01:40:48.087Z,4.09
2022-11-02T01:43:27.872Z,4.17
2022-11-02T01:46:01.726Z,4.20
2022-11-02T01:48:48.035Z,4.09
2022-11-02T01:51:26.822Z,3.96
2022-11-02T01:54:00.842Z,3.96
2022-11-02T01:56:31.187Z,3.90
2022-11-02T01:59:02.984Z,3.87
2022-11-02T02:01:30.952Z,3.75
2022-11-02T02:03:58.069Z,3.78
2022-11-02T02:06:27.730Z,3.67
2022-11-02T02:08:57.074Z,3.60
2022-11-02T02:11:28.079Z,3.66
2022-11-02T02:13:58.189Z,3.61
2022-11-02T02:16:39.543Z,3.47
2022-11-02T02:19:19.678Z,3.41
2022-11-02T02:22:27.457Z,3.26
2022-11-02T02:25:30.975Z,3.14
2022-11-02T02:28:37.322Z,3.10
2022-11-02T02:31:16.190Z,3.31
2022-11-02T02:33:49.378Z,3.60
2022-11-02T02:36:21.554Z,3.66
2022-11-02T02:38:59.274Z,3.57
2022-11-02T02:41:36.671Z,3.56
2022-11-02T02:44:06.490Z,3.54
2022-11-02T02:46:56.261Z,3.51
2022-11-02T02:49:34.293Z,3.58
2022-11-02T02:52:03.362Z,3.68
2022-11-02T02:54:39.741Z,3.70
2022-11-02T02:57:17.315Z,3.85
2022-11-02T02:59:46.061Z,3.91
2022-11-02T03:02:19.017Z,3.76
2022-11-02T03:04:45.485Z,3.62
2022-11-02T03:07:17.254Z,3.53
2022-11-02T03:10:02.177Z,3.56
2022-11-02T03:12:59.640Z,3.48
2022-11-02T03:15:35.292Z,3.36
2022-11-02T03:18:15.061Z,3.28
2022-11-02T03:21:03.831Z,3.39
2022-11-02T03:23:35.638Z,3.49
2022-11-02T03:26:17.918Z,3.56
2022-11-02T03:29:10.610Z,3.77
2022-11-02T03:31:41.622Z,3.93
2022-11-02T03:34:27.151Z,4.16
2022-11-02T03:37:19.472Z,4.38
2022-11-02T03:39:52.830Z,4.51
2022-11-02T03:42:23.105Z,4.60
2022-11-02T03:45:04.182Z,4.86
2022-11-02T03:47:35.237Z,5.03
2022-11-02T03:50:04.606Z,5.00
2022-11-02T03:52:35.286Z,5.07
2022-11-02T03:55:11.367Z,5.12
2022-11-02T03:57:45.053Z,5.16
2022-11-02T04:00:15.190Z,5.22
2022-11-02T04:02:45.802Z,5.19
2022-11-02T04:05:12.190Z,4.80
2022-11-02T04:08:01.267Z,4.42
2022-11-02T04:10:27.668Z,4.30
2022-11-02T04:13:13.189Z,4.30
2022-11-02T04:15:39.577Z,4.06
2022-11-02T04:18:24.780Z,4.08
2022-11-02T04:20:51.694Z,3.96
2022-11-02T04:23:38.376Z,3.80
2022-11-02T04:26:05.661Z,3.57
2022-11-02T04:28:31.965Z,3.51
2022-11-02T04:31:02.299Z,3.54
2022-11-02T04:33:35.491Z,3.60
2022-11-02T04:36:07.342Z,3.65
2022-11-02T04:38:43.533Z,3.50
2022-11-02T04:41:31.575Z,3.38
2022-11-02T04:43:58.692Z,3.33
2022-11-02T04:46:27.461Z,3.36
2022-11-02T04:48:54.297Z,3.36
2022-11-02T04:51:22.642Z,3.39
2022-11-02T04:53:49.947Z,3.42
2022-11-02T04:56:16.373Z,3.45
2022-11-02T04:58:43.069Z,3.34
2022-11-02T05:01:14.071Z,3.29
2022-11-02T05:03:40.870Z,3.34
2022-11-02T05:06:07.909Z,3.29
2022-11-02T05:08:35.657Z,3.13
2022-11-02T05:11:02.527Z,3.02
2022-11-02T05:13:29.745Z,2.95
2022-11-02T05:15:57.265Z,2.92
2022-11-02T05:18:24.791Z,2.96
2022-11-02T05:20:53.156Z,2.93
2022-11-02T05:23:20.230Z,2.88
2022-11-02T05:25:56.810Z,2.93
2022-11-02T05:28:24.203Z,2.94
2022-11-02T05:30:50.722Z,2.85
2022-11-02T05:33:17.919Z,2.83
2022-11-02T05:35:44.458Z,2.88
2022-11-02T05:38:10.876Z,2.86
2022-11-02T05:40:41.110Z,2.76
2022-11-02T05:43:09.061Z,2.75
2022-11-02T05:45:36.197Z,2.73
2022-11-02T05:48:06.930Z,2.74
2022-11-02T05:50:33.349Z,2.77
2022-11-02T05:52:59.657Z,2.79
2022-11-02T05:55:26.460Z,2.84
2022-11-02T05:57:54.222Z,2.90
2022-11-02T06:00:22.190Z,2.86
2022-11-02T06:02:49.853Z,2.86
2022-11-02T06:05:16.283Z,2.79
2022-11-02T06:07:42.671Z,2.81
2022-11-02T06:10:09.497Z,2.77
2022-11-02T06:12:35.828Z,2.73
2022-11-02T06:15:02.158Z,2.68
2022-11-02T06:17:28.891Z,2.59
2022-11-02T06:19:55.237Z,2.68
2022-11-02T06:22:21.590Z,2.76
2022-11-02T06:24:48.449Z,2.94
2022-11-02T06:27:14.829Z,3.09
2022-11-02T06:29:41.518Z,3.09
2022-11-02T06:32:07.864Z,3.19
2022-11-02T06:34:34.209Z,3.25
2022-11-02T06:37:01.009Z,3.44
2022-11-02T06:39:27.877Z,3.65
2022-11-02T06:41:54.238Z,3.80
2022-11-02T06:44:21.000Z,3.96
2022-11-02T06:46:47.706Z,4.22
2022-11-02T06:49:14.006Z,4.23
2022-11-02T06:51:40.314Z,4.11
2022-11-02T06:54:08.873Z,4.24
2022-11-02T06:56:35.336Z,4.29
2022-11-02T06:59:01.761Z,4.29
2022-11-02T07:01:28.644Z,4.26
2022-11-02T07:03:55.809Z,4.41
2022-11-02T07:06:22.149Z,4.82
2022-11-02T07:08:48.462Z,5.20
2022-11-02T07:11:18.832Z,5.99
2022-11-02T07:13:45.209Z,6.71
2022-11-02T07:16:11.588Z,7.24
2022-11-02T07:18:38.391Z,7.15
2022-11-02T07:21:04.792Z,7.02
2022-11-02T07:23:31.763Z,6.85
2022-11-02T07:25:58.106Z,6.72
2022-11-02T07:28:24.401Z,6.69
2022-11-02T07:30:54.161Z,6.76
2022-11-02T07:33:20.801Z,7.61
2022-11-02T07:35:47.220Z,8.82
2022-11-02T07:38:14.555Z,9.71
2022-11-02T07:40:40.900Z,10.47
2022-11-02T07:43:08.581Z,11.04
2022-11-02T07:45:35.190Z,11.69
2022-11-02T07:48:01.978Z,12.15
2022-11-02T07:50:28.458Z,12.27
2022-11-02T07:52:57.202Z,12.72
2022-11-02T07:55:26.810Z,13.18
2022-11-02T07:57:58.208Z,13.20
2022-11-02T08:00:26.521Z,13.23
2022-11-02T08:02:57.654Z,13.57
2022-11-02T08:05:25.006Z,13.85
2022-11-02T08:08:03.160Z,13.49
2022-11-02T08:10:35.389Z,13.16
2022-11-02T08:13:07.293Z,12.26
2022-11-02T08:15:34.057Z,11.28
2022-11-02T08:18:30.454Z,10.38
2022-11-02T08:20:58.808Z,10.44
2022-11-02T08:23:26.217Z,10.57
2022-11-02T08:25:53.781Z,10.73
2022-11-02T08:28:32.579Z,10.37
2022-11-02T08:30:59.389Z,10.32
2022-11-02T08:33:25.745Z,10.36
2022-11-02T08:35:53.928Z,10.25
2022-11-02T08:38:23.189Z,10.28
2022-11-02T08:40:49.720Z,10.40
2022-11-02T08:43:16.774Z,10.60
2022-11-02T08:48:32.308Z,11.32
2022-11-02T08:50:58.741Z,11.72
2022-11-02T08:53:25.121Z,11.64
2022-11-02T08:55:51.941Z,11.69
2022-11-02T08:58:18.436Z,11.51
2022-11-02T09:00:44.992Z,11.41
2022-11-02T09:03:13.719Z,11.48
2022-11-02T09:05:45.039Z,11.53
2022-11-02T09:08:15.310Z,11.60
2022-11-02T09:10:41.748Z,12.20
2022-11-02T09:13:11.980Z,12.03
2022-11-02T09:15:39.156Z,11.83
2022-11-02T09:18:07.893Z,11.57
2022-11-02T09:20:35.559Z,11.56
2022-11-02T09:23:02.004Z,11.47
2022-11-02T09:25:28.747Z,11.71
2022-11-02T09:27:57.316Z,11.63
2022-11-02T09:30:25.917Z,11.63
2022-11-02T09:33:00.928Z,11.29
2022-11-02T09:35:30.607Z,11.30
2022-11-02T09:37:57.314Z,11.37
2022-11-02T09:40:26.161Z,11.34
2022-11-02T09:42:54.661Z,11.45
2022-11-02T09:45:21.969Z,11.50
2022-11-02T09:48:16.106Z,11.55
2022-11-02T09:50:57.727Z,11.29
2022-11-02T09:53:39.854Z,11.41
2022-11-02T09:56:07.501Z,11.40
2022-11-02T09:58:38.529Z,11.38
2022-11-02T10:01:19.302Z,11.38
2022-11-02T10:04:25.811Z,11.49
2022-11-02T10:07:01.327Z,11.70
2022-11-02T10:09:36.945Z,11.63
2022-11-02T10:12:13.164Z,11.49
2022-11-02T10:14:49.517Z,11.69
2022-11-02T10:17:25.362Z,11.69
2022-11-02T10:20:02.452Z,11.94
2022-11-02T10:22:41.032Z,12.15
2022-11-02T10:25:08.283Z,12.53
2022-11-02T10:27:38.437Z,12.72
2022-11-02T10:30:10.929Z,12.76
2022-11-02T10:32:39.803Z,12.72
2022-11-02T10:35:36.711Z,12.62
2022-11-02T10:38:49.722Z,12.80
2022-11-02T10:41:44.714Z,12.84
2022-11-02T10:44:48.540Z,13.69
2022-11-02T10:47:19.005Z,14.19
2022-11-02T10:49:54.295Z,13.56
2022-11-02T10:52:21.508Z,13.55
2022-11-02T10:54:51.439Z,14.33
2022-11-02T10:57:25.038Z,14.62
2022-11-02T11:00:25.587Z,13.40
2022-11-02T11:03:14.802Z,14.29
2022-11-02T11:06:04.318Z,14.25
2022-11-02T11:08:34.550Z,15.02
2022-11-02T11:11:17.767Z,15.13
2022-11-02T11:16:42.344Z,14.67
2022-11-02T11:19:40.756Z,14.69
2022-11-02T11:22:27.453Z,14.92
2022-11-02T11:25:14.696Z,14.93
2022-11-02T11:27:48.921Z,14.15
2022-11-02T11:33:20.004Z,14.51
2022-11-02T11:35:49.348Z,14.30
2022-11-02T11:38:22.982Z,13.36
2022-11-02T11:40:54.975Z,13.32
2022-11-02T11:43:25.876Z,13.99
2022-11-02T11:46:05.244Z,14.22
2022-11-02T11:48:56.195Z,14.14
2022-11-02T11:51:36.038Z,14.40
2022-11-02T11:54:23.559Z,14.84
2022-11-02T11:56:52.440Z,14.48
2022-11-02T11:59:39.435Z,15.00
2022-11-02T12:02:44.313Z,14.14
2022-11-02T12:05:15.089Z,14.85
2022-11-02T12:08:13.413Z,14.78
2022-11-02T12:11:01.722Z,14.23
2022-11-02T12:13:43.445Z,14.34
2022-11-02T12:16:11.780Z,14.51
2022-11-02T12:18:50.188Z,14.78
2022-11-02T12:21:27.593Z,14.14
2022-11-02T12:24:00.210Z,13.77
2022-11-02T12:26:37.398Z,14.51
2022-11-02T12:29:22.416Z,14.84
2022-11-02T12:32:08.419Z,15.04
2022-11-02T12:35:28.391Z,15.08
2022-11-02T12:37:59.356Z,14.67
2022-11-02T12:41:05.154Z,14.12
2022-11-02T12:43:46.506Z,14.15
2022-11-02T12:46:38.828Z,13.98
2022-11-02T12:49:19.755Z,13.63
2022-11-02T12:51:58.818Z,13.88
2022-11-02T12:54:40.637Z,14.27
2022-11-02T12:57:14.364Z,14.09
2022-11-02T12:59:44.345Z,14.66
2022-11-02T13:02:24.431Z,14.78
2022-11-02T13:05:01.966Z,14.63
2022-11-02T13:07:41.319Z,14.67
2022-11-02T13:10:17.205Z,14.72
2022-11-02T13:12:46.621Z,14.28
2022-11-02T13:15:18.733Z,14.30
2022-11-02T13:17:50.500Z,13.94
2022-11-02T13:20:33.933Z,13.47
2022-11-02T13:23:13.056Z,13.33
2022-11-02T13:25:45.155Z,13.31
2022-11-02T13:28:17.284Z,13.47
2022-11-02T13:30:46.080Z,13.65
2022-11-02T13:33:30.830Z,13.78
2022-11-02T13:35:57.888Z,13.78
2022-11-02T13:38:44.352Z,13.53
2022-11-02T13:41:42.976Z,13.70
2022-11-02T13:44:43.175Z,13.66
2022-11-02T13:47:44.671Z,13.42
2022-11-02T13:50:16.454Z,13.45
2022-11-02T13:52:55.517Z,13.57
2022-11-02T13:55:25.972Z,13.60
2022-11-02T13:57:59.478Z,13.63
2022-11-02T14:00:27.224Z,13.71
2022-11-02T14:03:08.365Z,13.33
2022-11-02T14:05:44.455Z,13.11
2022-11-02T14:08:19.917Z,12.92
2022-11-02T14:11:04.469Z,13.00
2022-11-02T14:13:55.629Z,13.07
2022-11-02T14:16:45.521Z,13.18
2022-11-02T14:19:19.528Z,13.08
2022-11-02T14:21:50.102Z,13.12
2022-11-02T14:24:34.924Z,13.04
2022-11-02T14:27:24.491Z,12.87
2022-11-02T14:29:53.476Z,12.90
2022-11-02T14:32:28.253Z,12.90
2022-11-02T14:35:15.934Z,12.68
2022-11-02T14:38:19.255Z,12.45
2022-11-02T14:41:00.458Z,12.33
2022-11-02T14:43:58.072Z,12.19
2022-11-02T14:46:57.816Z,12.06
2022-11-02T14:49:30.927Z,11.97
2022-11-02T14:52:12.178Z,11.81
2022-11-02T14:54:48.366Z,11.88
2022-11-02T14:57:25.995Z,11.82
2022-11-02T14:59:57.075Z,11.65
2022-11-02T15:02:43.044Z,11.54
2022-11-02T15:05:22.801Z,11.49
2022-11-02T15:07:52.288Z,11.47
2022-11-02T15:10:18.549Z,11.53
2022-11-02T15:12:47.919Z,11.40
2022-11-02T15:15:37.309Z,11.18
2022-11-02T15:18:24.506Z,11.08
2022-11-02T15:21:12.759Z,10.86
2022-11-02T15:26:29.567Z,10.56
2022-11-02T15:29:00.601Z,10.47
2022-11-02T15:31:28.229Z,10.32
2022-11-02T15:34:00.521Z,10.16
2022-11-02T15:36:35.213Z,10.12
2022-11-02T15:39:10.828Z,10.00
2022-11-02T15:41:43.278Z,9.84
2022-11-02T15:44:37.760Z,9.72
2022-11-02T15:47:28.303Z,9.58
2022-11-02T15:50:04.746Z,9.51
2022-11-02T15:56:19.540Z,9.34
2022-11-02T15:59:17.261Z,9.25
2022-11-02T16:01:43.870Z,9.23
2022-11-02T16:04:19.774Z,9.14
2022-11-02T16:06:46.465Z,9.03
2022-11-02T16:09:35.095Z,8.81
2022-11-02T16:12:19.050Z,8.75
2022-11-02T16:14:53.273Z,8.64
2022-11-02T16:17:26.101Z,8.61
2022-11-02T16:19:53.181Z,8.38
2022-11-02T16:22:24.873Z,8.20
2022-11-02T16:24:53.205Z,8.04
2022-11-02T16:27:21.466Z,7.89
2022-11-02T16:29:49.542Z,7.79
2022-11-02T16:32:16.973Z,7.74
2022-11-02T16:34:44.160Z,7.67
2022-11-02T16:37:15.302Z,7.53
2022-11-02T16:39:46.340Z,7.43
2022-11-02T16:42:17.620Z,7.42
2022-11-02T16:44:54.819Z,7.37
2022-11-02T16:47:29.894Z,7.25
2022-11-02T16:49:58.711Z,7.07
2022-11-02T16:52:36.459Z,6.98
2022-11-02T16:55:22.999Z,6.95
2022-11-02T16:57:49.981Z,6.80
2022-11-02T17:00:19.383Z,6.74
2022-11-02T17:02:47.197Z,6.65
2022-11-02T17:05:20.441Z,6.57
2022-11-02T17:08:10.334Z,6.49
2022-11-02T17:10:38.817Z,6.36
2022-11-02T17:13:18.644Z,6.27
2022-11-02T17:15:49.654Z,6.19
2022-11-02T17:18:27.129Z,6.12
2022-11-02T17:21:12.060Z,6.01
2022-11-02T17:23:44.446Z,5.97
2022-11-02T17:26:25.780Z,5.93
2022-11-02T17:28:55.054Z,5.86
2022-11-02T17:31:23.888Z,5.83
2022-11-02T17:33:51.096Z,5.79
2022-11-02T17:36:17.781Z,5.77
2022-11-02T17:38:44.351Z,5.70
2022-11-02T17:41:36.272Z,5.62
2022-11-02T17:44:03.450Z,5.59
2022-11-02T17:46:30.238Z,5.57
2022-11-02T17:48:58.184Z,5.52
2022-11-02T17:51:25.573Z,5.48
2022-11-02T17:53:52.123Z,5.43
2022-11-02T17:56:19.164Z,5.35
2022-11-02T17:58:45.524Z,5.31
2022-11-02T18:01:13.106Z,5.29
2022-11-02T18:03:39.958Z,5.22
2022-11-02T18:06:06.701Z,5.24
2022-11-02T18:08:53.193Z,5.23
2022-11-02T18:11:24.918Z,5.25
2022-11-02T18:13:52.481Z,5.18
2022-11-02T18:16:19.288Z,5.16
2022-11-02T18:18:45.673Z,5.12
2022-11-02T18:21:12.600Z,5.08
2022-11-02T18:23:41.253Z,4.93
2022-11-02T18:26:10.934Z,4.60
2022-11-02T18:28:37.480Z,4.64
2022-11-02T18:31:08.637Z,4.64
2022-11-02T18:33:35.156Z,4.69
2022-11-02T18:36:04.028Z,4.62
2022-11-02T18:38:30.357Z,4.62
2022-11-02T18:40:56.695Z,4.63
2022-11-02T18:43:23.396Z,4.49
2022-11-02T18:45:49.706Z,4.50
2022-11-02T18:48:16.057Z,4.46
2022-11-02T18:50:42.926Z,4.47
2022-11-02T18:53:09.864Z,4.45
2022-11-02T18:55:39.439Z,4.39
2022-11-02T18:58:06.674Z,4.32
2022-11-02T19:00:33.275Z,4.33
2022-11-02T19:02:59.569Z,4.35
2022-11-02T19:05:52.748Z,4.27
2022-11-02T19:08:37.375Z,4.22
2022-11-02T19:11:04.231Z,4.20
2022-11-02T19:13:30.534Z,4.27
2022-11-02T19:15:56.955Z,4.17
2022-11-02T19:18:23.706Z,4.09
2022-11-02T19:20:50.022Z,4.03
2022-11-02T19:23:16.379Z,3.99
2022-11-02T19:25:50.438Z,3.96
2022-11-02T19:28:16.790Z,3.87
2022-11-02T19:30:43.111Z,3.85
2022-11-02T19:33:09.852Z,3.82
2022-11-02T19:35:36.157Z,3.83
2022-11-02T19:38:02.456Z,3.89
2022-11-02T19:40:29.307Z,3.97
2022-11-02T19:42:56.073Z,3.91
2022-11-02T19:45:22.853Z,3.80
2022-11-02T19:47:50.082Z,3.75
2022-11-02T19:50:16.477Z,3.68
2022-11-02T19:52:43.258Z,3.63
2022-11-02T19:55:09.706Z,3.52
2022-11-02T19:57:36.076Z,3.50
2022-11-02T20:00:03.896Z,3.46
2022-11-02T20:02:30.254Z,3.44
2022-11-02T20:04:56.571Z,3.45
2022-11-02T20:07:23.277Z,3.38
2022-11-02T20:09:51.630Z,3.34
2022-11-02T20:12:19.725Z,3.36
2022-11-02T20:14:46.577Z,3.32
2022-11-02T20:19:59.639Z,3.24
2022-11-02T20:22:26.024Z,3.22
2022-11-02T20:24:52.338Z,3.18
2022-11-02T20:27:18.853Z,3.10
2022-11-02T20:29:46.277Z,3.08
2022-11-02T20:32:12.632Z,3.09
2022-11-02T20:34:39.689Z,3.08
2022-11-02T20:37:07.821Z,3.04
2022-11-02T20:39:34.148Z,3.04
2022-11-02T20:42:00.509Z,3.00
2022-11-02T20:44:27.283Z,3.02
2022-11-02T20:46:53.882Z,3.09
2022-11-02T20:49:36.339Z,3.08
2022-11-02T20:52:08.250Z,2.87
2022-11-02T20:54:34.616Z,2.66
2022-11-02T20:57:00.982Z,2.64
2022-11-02T20:59:27.893Z,2.68
2022-11-02T21:01:54.299Z,2.60
2022-11-02T21:04:21.857Z,2.64
2022-11-02T21:06:50.185Z,2.59
2022-11-02T21:09:17.295Z,2.54
2022-11-02T21:12:02.692Z,2.50
2022-11-02T21:14:28.936Z,2.55
2022-11-02T21:16:55.416Z,2.55
2022-11-02T21:19:22.159Z,2.47
2022-11-02T21:21:48.481Z,2.42
2022-11-02T21:24:14.800Z,2.35
2022-11-02T21:26:41.486Z,2.27
2022-11-02T21:29:09.268Z,2.24
2022-11-02T21:31:35.706Z,2.28
2022-11-02T21:34:02.484Z,2.32
2022-11-02T21:36:28.837Z,2.26
2022-11-02T21:38:55.819Z,2.33
2022-11-02T21:41:29.190Z,2.40
2022-11-02T21:43:55.878Z,2.36
2022-11-02T21:46:24.365Z,2.25
2022-11-02T21:48:51.592Z,2.15
2022-11-02T21:51:19.769Z,2.09
2022-11-02T21:53:47.559Z,2.10
2022-11-02T21:56:19.561Z,2.04
2022-11-02T21:58:47.385Z,2.06
2022-11-02T22:01:39.480Z,2.00
2022-11-02T22:04:07.480Z,2.08
2022-11-02T22:06:34.737Z,2.06
2022-11-02T22:09:02.327Z,1.99
2022-11-02T22:11:28.777Z,1.93
2022-11-02T22:13:57.959Z,1.85
2022-11-02T22:16:29.991Z,1.86
2022-11-02T22:19:04.298Z,1.82
2022-11-02T22:21:32.802Z,1.78
2022-11-02T22:23:59.772Z,1.78
2022-11-02T22:26:27.970Z,1.84
2022-11-02T22:28:57.409Z,1.92
2022-11-02T22:31:35.312Z,1.93
2022-11-02T22:34:03.796Z,1.81
2022-11-02T22:36:32.667Z,1.80
2022-11-02T22:39:00.538Z,1.83
2022-11-02T22:41:30.192Z,1.88
2022-11-02T22:43:59.006Z,1.81
2022-11-02T22:46:26.910Z,1.81
2022-11-02T22:48:55.752Z,1.82
2022-11-02T22:51:24.018Z,1.88
2022-11-02T22:53:50.488Z,1.84
2022-11-02T22:56:19.181Z,1.75
2022-11-02T22:58:46.860Z,1.69
2022-11-02T23:01:20.303Z,1.61
2022-11-02T23:03:47.895Z,1.62
2022-11-02T23:06:15.305Z,1.56
2022-11-02T23:08:47.247Z,1.52
2022-11-02T23:11:21.958Z,1.64
2022-11-02T23:13:59.218Z,1.56
2022-11-02T23:16:27.959Z,1.49
2022-11-02T23:19:31.035Z,1.47
2022-11-02T23:22:19.277Z,1.53
2022-11-02T23:25:05.934Z,1.53
2022-11-02T23:27:34.258Z,1.47
2022-11-02T23:30:19.570Z,1.40
2022-11-02T23:32:45.858Z,1.32
2022-11-02T23:35:31.273Z,1.34
2022-11-02T23:38:05.585Z,1.34
2022-11-02T23:40:33.019Z,1.38
2022-11-02T23:42:59.452Z,1.42
2022-11-02T23:45:25.786Z,1.38
2022-11-02T23:48:00.750Z,1.47
2022-11-02T23:50:48.523Z,1.36
2022-11-02T23:53:36.280Z,1.38
2022-11-02T23:56:22.373Z,1.46
2022-11-02T23:59:06.717Z,1.41
